sensor_id;sensor_type;location;lat;lon;timestamp;pressure;altitude;pressure_sealevel;temperature;humidity
45369;BME280;51342;55.250;37.668;2024-03-06T00:02:07;100651.31;;;-3.76;64.65
45369;BME280;51342;55.250;37.668;2024-03-06T00:04:39;100658.72;;;-3.78;64.54
45369;BME280;51342;55.250;37.668;2024-03-06T00:07:10;100663.47;;;-3.74;64.31
45369;BME280;51342;55.250;37.668;2024-03-06T00:09:42;100663.47;;;-3.74;64.33
45369;BME280;51342;55.250;37.668;2024-03-06T00:12:14;100664.16;;;-3.75;64.44
45369;BME280;51342;55.250;37.668;2024-03-06T00:14:45;100664.16;;;-3.75;64.52
45369;BME280;51342;55.250;37.668;2024-03-06T00:17:17;100664.38;;;-3.73;64.48
45369;BME280;51342;55.250;37.668;2024-03-06T00:19:48;100662.75;;;-3.72;64.43
45369;BME280;51342;55.250;37.668;2024-03-06T00:22:19;100656.00;;;-3.79;64.34
45369;BME280;51342;55.250;37.668;2024-03-06T00:24:51;100660.53;;;-3.77;64.36
45369;BME280;51342;55.250;37.668;2024-03-06T00:27:23;100660.22;;;-3.72;64.29
45369;BME280;51342;55.250;37.668;2024-03-06T00:29:54;100661.13;;;-3.72;64.33
45369;BME280;51342;55.250;37.668;2024-03-06T00:32:26;100667.81;;;-3.72;64.38
45369;BME280;51342;55.250;37.668;2024-03-06T00:34:57;100668.53;;;-3.74;64.28
45369;BME280;51342;55.250;37.668;2024-03-06T00:37:28;100676.41;;;-3.78;64.25
45369;BME280;51342;55.250;37.668;2024-03-06T00:40:00;100664.50;;;-3.79;64.12
45369;BME280;51342;55.250;37.668;2024-03-06T00:42:31;100672.59;;;-3.81;64.07
45369;BME280;51342;55.250;37.668;2024-03-06T00:45:03;100678.16;;;-3.84;63.89
45369;BME280;51342;55.250;37.668;2024-03-06T00:47:35;100681.00;;;-3.88;63.90
45369;BME280;51342;55.250;37.668;2024-03-06T00:50:06;100676.66;;;-3.89;63.91
45369;BME280;51342;55.250;37.668;2024-03-06T00:52:38;100675.75;;;-3.89;63.96
45369;BME280;51342;55.250;37.668;2024-03-06T00:55:10;100674.25;;;-3.94;63.80
45369;BME280;51342;55.250;37.668;2024-03-06T00:57:41;100679.19;;;-3.89;63.84
45369;BME280;51342;55.250;37.668;2024-03-06T01:00:13;100679.19;;;-3.89;63.86
45369;BME280;51342;55.250;37.668;2024-03-06T01:02:46;100684.63;;;-3.86;63.87
45369;BME280;51342;55.250;37.668;2024-03-06T01:05:18;100676.13;;;-3.86;63.75
45369;BME280;51342;55.250;37.668;2024-03-06T01:07:50;100683.03;;;-3.85;63.74
45369;BME280;51342;55.250;37.668;2024-03-06T01:10:21;100677.03;;;-3.86;63.67
45369;BME280;51342;55.250;37.668;2024-03-06T01:12:53;100679.38;;;-3.87;63.27
45369;BME280;51342;55.250;37.668;2024-03-06T01:15:25;100679.00;;;-3.90;63.59
45369;BME280;51342;55.250;37.668;2024-03-06T01:17:56;100680.81;;;-3.89;63.31
45369;BME280;51342;55.250;37.668;2024-03-06T01:20:28;100678.28;;;-3.89;63.19
45369;BME280;51342;55.250;37.668;2024-03-06T01:23:00;100679.91;;;-3.90;63.16
45369;BME280;51342;55.250;37.668;2024-03-06T01:25:32;100676.59;;;-3.96;62.92
45369;BME280;51342;55.250;37.668;2024-03-06T01:28:04;100674.44;;;-3.93;63.02
45369;BME280;51342;55.250;37.668;2024-03-06T01:30:35;100676.25;;;-3.92;62.94
45369;BME280;51342;55.250;37.668;2024-03-06T01:33:07;100676.25;;;-3.92;62.75
45369;BME280;51342;55.250;37.668;2024-03-06T01:35:38;100679.31;;;-3.94;62.69
45369;BME280;51342;55.250;37.668;2024-03-06T01:38:09;100674.78;;;-3.97;62.62
45369;BME280;51342;55.250;37.668;2024-03-06T01:40:44;100684.47;;;-4.00;62.56
45369;BME280;51342;55.250;37.668;2024-03-06T01:43:24;100675.59;;;-4.04;62.49
45369;BME280;51342;55.250;37.668;2024-03-06T01:45:56;100671.97;;;-4.06;62.55
45369;BME280;51342;55.250;37.668;2024-03-06T01:48:28;100677.22;;;-4.04;62.25
45369;BME280;51342;55.250;37.668;2024-03-06T01:51:02;100677.72;;;-4.07;62.18
45369;BME280;51342;55.250;37.668;2024-03-06T01:53:36;100672.16;;;-4.04;61.97
45369;BME280;51342;55.250;37.668;2024-03-06T01:56:08;100677.44;;;-4.03;61.98
45369;BME280;51342;55.250;37.668;2024-03-06T01:58:47;100677.44;;;-4.03;61.77
45369;BME280;51342;55.250;37.668;2024-03-06T02:01:19;100674.50;;;-4.06;61.65
45369;BME280;51342;55.250;37.668;2024-03-06T02:03:53;100672.88;;;-4.05;61.81
45369;BME280;51342;55.250;37.668;2024-03-06T02:06:25;100682.50;;;-4.03;61.48
45369;BME280;51342;55.250;37.668;2024-03-06T02:08:57;100680.63;;;-4.04;61.48
45369;BME280;51342;55.250;37.668;2024-03-06T02:11:28;100673.59;;;-4.06;61.44
45369;BME280;51342;55.250;37.668;2024-03-06T02:14:00;100681.34;;;-4.05;61.39
45369;BME280;51342;55.250;37.668;2024-03-06T02:16:32;100682.06;;;-4.06;61.48
45369;BME280;51342;55.250;37.668;2024-03-06T02:19:03;100681.16;;;-4.06;61.52
45369;BME280;51342;55.250;37.668;2024-03-06T02:21:35;100675.22;;;-4.07;61.51
45369;BME280;51342;55.250;37.668;2024-03-06T02:24:06;100689.13;;;-4.03;61.56
45369;BME280;51342;55.250;37.668;2024-03-06T02:26:39;100688.94;;;-4.05;61.51
45369;BME280;51342;55.250;37.668;2024-03-06T02:29:11;100693.09;;;-4.05;61.49
45369;BME280;51342;55.250;37.668;2024-03-06T02:31:42;100696.53;;;-4.05;61.62
45369;BME280;51342;55.250;37.668;2024-03-06T02:34:13;100690.06;;;-4.03;61.59
45369;BME280;51342;55.250;37.668;2024-03-06T02:36:45;100683.88;;;-4.05;61.70
45369;BME280;51342;55.250;37.668;2024-03-06T02:39:16;100697.44;;;-4.04;61.55
45369;BME280;51342;55.250;37.668;2024-03-06T02:41:48;100693.38;;;-4.09;61.61
45369;BME280;51342;55.250;37.668;2024-03-06T02:44:20;100697.66;;;-4.15;61.62
45369;BME280;51342;55.250;37.668;2024-03-06T02:46:51;100700.50;;;-4.19;61.78
45369;BME280;51342;55.250;37.668;2024-03-06T02:49:23;100706.78;;;-4.23;61.72
45369;BME280;51342;55.250;37.668;2024-03-06T02:51:54;100708.69;;;-4.28;61.82
45369;BME280;51342;55.250;37.668;2024-03-06T02:54:26;100709.91;;;-4.31;61.79
45369;BME280;51342;55.250;37.668;2024-03-06T02:56:57;100712.75;;;-4.35;61.85
45369;BME280;51342;55.250;37.668;2024-03-06T02:59:29;100713.78;;;-4.40;61.80
45369;BME280;51342;55.250;37.668;2024-03-06T03:02:01;100712.56;;;-4.49;61.95
45369;BME280;51342;55.250;37.668;2024-03-06T03:04:33;100714.97;;;-4.57;62.07
45369;BME280;51342;55.250;37.668;2024-03-06T03:07:05;100713.75;;;-4.66;62.08
45369;BME280;51342;55.250;37.668;2024-03-06T03:09:36;100720.84;;;-4.76;62.03
45369;BME280;51342;55.250;37.668;2024-03-06T03:12:09;100716.38;;;-4.84;62.24
45369;BME280;51342;55.250;37.668;2024-03-06T03:14:42;100720.13;;;-4.88;62.05
45369;BME280;51342;55.250;37.668;2024-03-06T03:17:14;100731.72;;;-4.95;62.18
45369;BME280;51342;55.250;37.668;2024-03-06T03:19:46;100721.31;;;-5.04;62.27
45369;BME280;51342;55.250;37.668;2024-03-06T03:22:17;100720.06;;;-5.13;62.24
45369;BME280;51342;55.250;37.668;2024-03-06T03:24:49;100726.13;;;-5.18;62.46
45369;BME280;51342;55.250;37.668;2024-03-06T03:27:20;100724.59;;;-5.23;62.33
45369;BME280;51342;55.250;37.668;2024-03-06T03:29:52;100729.94;;;-5.27;62.20
45369;BME280;51342;55.250;37.668;2024-03-06T03:32:24;100723.84;;;-5.35;62.20
45369;BME280;51342;55.250;37.668;2024-03-06T03:34:55;100717.78;;;-5.43;62.39
45369;BME280;51342;55.250;37.668;2024-03-06T03:37:26;100720.09;;;-5.44;62.37
45369;BME280;51342;55.250;37.668;2024-03-06T03:39:59;100721.28;;;-5.48;62.44
45369;BME280;51342;55.250;37.668;2024-03-06T03:42:30;100721.56;;;-5.52;62.34
45369;BME280;51342;55.250;37.668;2024-03-06T03:45:02;100725.22;;;-5.50;62.52
45369;BME280;51342;55.250;37.668;2024-03-06T03:47:34;100721.75;;;-5.50;62.25
45369;BME280;51342;55.250;37.668;2024-03-06T03:50:06;100727.81;;;-5.55;62.29
45369;BME280;51342;55.250;37.668;2024-03-06T03:52:39;100739.50;;;-5.56;62.02
45369;BME280;51342;55.250;37.668;2024-03-06T03:55:12;100743.69;;;-5.62;62.13
45369;BME280;51342;55.250;37.668;2024-03-06T03:57:44;100736.28;;;-5.73;62.15
45369;BME280;51342;55.250;37.668;2024-03-06T04:00:16;100741.84;;;-5.76;62.09
45369;BME280;51342;55.250;37.668;2024-03-06T04:02:47;100750.16;;;-5.82;62.23
45369;BME280;51342;55.250;37.668;2024-03-06T04:05:19;100752.75;;;-5.88;62.26
45369;BME280;51342;55.250;37.668;2024-03-06T04:07:50;100750.34;;;-5.94;62.25
45369;BME280;51342;55.250;37.668;2024-03-06T04:10:22;100750.22;;;-6.01;62.11
45369;BME280;51342;55.250;37.668;2024-03-06T04:12:53;100748.41;;;-6.07;62.31
45369;BME280;51342;55.250;37.668;2024-03-06T04:15:26;100746.66;;;-6.14;62.45
45369;BME280;51342;55.250;37.668;2024-03-06T04:17:58;100739.25;;;-6.25;62.39
45369;BME280;51342;55.250;37.668;2024-03-06T04:20:29;100748.00;;;-6.29;62.35
45369;BME280;51342;55.250;37.668;2024-03-06T04:23:01;100747.41;;;-6.39;62.35
45369;BME280;51342;55.250;37.668;2024-03-06T04:25:33;100753.47;;;-6.50;62.42
45369;BME280;51342;55.250;37.668;2024-03-06T04:28:05;100758.50;;;-6.50;62.39
45369;BME280;51342;55.250;37.668;2024-03-06T04:30:38;100760.13;;;-6.50;62.29
45369;BME280;51342;55.250;37.668;2024-03-06T04:33:10;100751.22;;;-6.54;62.16
45369;BME280;51342;55.250;37.668;2024-03-06T04:35:44;100764.03;;;-6.52;62.32
45369;BME280;51342;55.250;37.668;2024-03-06T04:38:16;100760.81;;;-6.51;62.07
45369;BME280;51342;55.250;37.668;2024-03-06T04:40:47;100755.13;;;-6.56;62.13
45369;BME280;51342;55.250;37.668;2024-03-06T04:43:19;100766.06;;;-6.50;62.25
45369;BME280;51342;55.250;37.668;2024-03-06T04:45:50;100765.78;;;-6.46;62.23
45369;BME280;51342;55.250;37.668;2024-03-06T04:48:22;100759.16;;;-6.45;62.25
45369;BME280;51342;55.250;37.668;2024-03-06T04:50:53;100762.03;;;-6.36;62.34
45369;BME280;51342;55.250;37.668;2024-03-06T04:53:25;100767.00;;;-6.31;62.10
45369;BME280;51342;55.250;37.668;2024-03-06T04:55:56;100765.56;;;-6.23;62.14
45369;BME280;51342;55.250;37.668;2024-03-06T04:58:28;100764.38;;;-6.20;62.26
45369;BME280;51342;55.250;37.668;2024-03-06T05:00:59;100763.59;;;-6.13;62.20
45369;BME280;51342;55.250;37.668;2024-03-06T05:03:31;100766.06;;;-6.07;62.18
45369;BME280;51342;55.250;37.668;2024-03-06T05:06:02;100758.75;;;-6.06;62.09
45369;BME280;51342;55.250;37.668;2024-03-06T05:08:34;100766.00;;;-6.02;62.19
45369;BME280;51342;55.250;37.668;2024-03-06T05:11:05;100770.28;;;-5.95;62.07
45369;BME280;51342;55.250;37.668;2024-03-06T05:13:37;100759.53;;;-5.81;62.03
45369;BME280;51342;55.250;37.668;2024-03-06T05:16:08;100763.94;;;-5.68;62.00
45369;BME280;51342;55.250;37.668;2024-03-06T05:18:40;100765.84;;;-5.54;61.82
45369;BME280;51342;55.250;37.668;2024-03-06T05:21:11;100762.66;;;-5.40;61.63
45369;BME280;51342;55.250;37.668;2024-03-06T05:23:43;100759.69;;;-5.25;61.26
45369;BME280;51342;55.250;37.668;2024-03-06T05:26:14;100757.72;;;-5.15;61.19
45369;BME280;51342;55.250;37.668;2024-03-06T05:28:46;100762.88;;;-5.08;60.75
45369;BME280;51342;55.250;37.668;2024-03-06T05:31:19;100758.94;;;-5.06;60.86
45369;BME280;51342;55.250;37.668;2024-03-06T05:33:54;100753.50;;;-4.96;60.82
45369;BME280;51342;55.250;37.668;2024-03-06T05:36:26;100744.94;;;-4.91;60.54
45369;BME280;51342;55.250;37.668;2024-03-06T05:38:57;100751.34;;;-4.74;60.36
45369;BME280;51342;55.250;37.668;2024-03-06T05:41:29;100747.28;;;-4.67;60.16
45369;BME280;51342;55.250;37.668;2024-03-06T05:44:00;100747.19;;;-4.61;59.87
45369;BME280;51342;55.250;37.668;2024-03-06T05:46:32;100743.75;;;-4.62;59.74
45369;BME280;51342;55.250;37.668;2024-03-06T05:49:03;100751.94;;;-4.57;59.57
45369;BME280;51342;55.250;37.668;2024-03-06T05:51:35;100750.25;;;-4.51;59.30
45369;BME280;51342;55.250;37.668;2024-03-06T05:54:07;100744.56;;;-4.43;59.49
45369;BME280;51342;55.250;37.668;2024-03-06T05:56:41;100745.78;;;-4.34;59.02
45369;BME280;51342;55.250;37.668;2024-03-06T05:59:13;100746.78;;;-4.26;58.78
45369;BME280;51342;55.250;37.668;2024-03-06T06:01:45;100744.25;;;-4.13;58.83
45369;BME280;51342;55.250;37.668;2024-03-06T06:04:16;100741.72;;;-4.01;58.52
45369;BME280;51342;55.250;37.668;2024-03-06T06:06:48;100748.53;;;-3.87;58.15
45369;BME280;51342;55.250;37.668;2024-03-06T06:09:19;100760.88;;;-3.83;58.09
45369;BME280;51342;55.250;37.668;2024-03-06T06:11:51;100758.03;;;-3.79;57.80
45369;BME280;51342;55.250;37.668;2024-03-06T06:14:23;100755.72;;;-3.77;57.67
45369;BME280;51342;55.250;37.668;2024-03-06T06:16:56;100751.56;;;-3.77;57.63
45369;BME280;51342;55.250;37.668;2024-03-06T06:19:28;100755.72;;;-3.77;57.63
45369;BME280;51342;55.250;37.668;2024-03-06T06:21:59;100761.06;;;-3.68;57.49
45369;BME280;51342;55.250;37.668;2024-03-06T06:24:30;100756.66;;;-3.57;57.39
45369;BME280;51342;55.250;37.668;2024-03-06T06:27:02;100755.91;;;-3.43;57.41
45369;BME280;51342;55.250;37.668;2024-03-06T06:29:33;100759.63;;;-3.34;57.08
45369;BME280;51342;55.250;37.668;2024-03-06T06:32:05;100757.75;;;-3.22;57.11
45369;BME280;51342;55.250;37.668;2024-03-06T06:34:36;100748.91;;;-3.18;56.66
45369;BME280;51342;55.250;37.668;2024-03-06T06:37:08;100753.13;;;-3.12;56.34
45369;BME280;51342;55.250;37.668;2024-03-06T06:39:39;100760.25;;;-3.02;56.53
45369;BME280;51342;55.250;37.668;2024-03-06T06:42:11;100760.31;;;-2.95;56.43
45369;BME280;51342;55.250;37.668;2024-03-06T06:44:42;100763.50;;;-2.83;56.10
45369;BME280;51342;55.250;37.668;2024-03-06T06:47:13;100763.91;;;-2.73;55.93
45369;BME280;51342;55.250;37.668;2024-03-06T06:49:45;100754.38;;;-2.69;55.87
45369;BME280;51342;55.250;37.668;2024-03-06T06:52:17;100762.41;;;-2.58;55.64
45369;BME280;51342;55.250;37.668;2024-03-06T06:54:48;100762.50;;;-2.44;55.44
45369;BME280;51342;55.250;37.668;2024-03-06T06:57:21;100759.81;;;-2.38;55.34
45369;BME280;51342;55.250;37.668;2024-03-06T06:59:52;100760.03;;;-2.37;55.56
45369;BME280;51342;55.250;37.668;2024-03-06T07:02:24;100758.06;;;-2.32;55.70
45369;BME280;51342;55.250;37.668;2024-03-06T07:04:55;100762.25;;;-2.26;55.66
45369;BME280;51342;55.250;37.668;2024-03-06T07:07:28;100763.75;;;-2.21;55.54
45369;BME280;51342;55.250;37.668;2024-03-06T07:09:59;100765.41;;;-2.14;55.41
45369;BME280;51342;55.250;37.668;2024-03-06T07:12:31;100761.09;;;-2.08;55.48
45369;BME280;51342;55.250;37.668;2024-03-06T07:15:03;100773.63;;;-1.95;55.36
45369;BME280;51342;55.250;37.668;2024-03-06T07:17:34;100758.66;;;-1.87;55.15
45369;BME280;51342;55.250;37.668;2024-03-06T07:20:06;100765.22;;;-1.67;54.93
45369;BME280;51342;55.250;37.668;2024-03-06T07:22:39;100766.72;;;-1.55;54.52
45369;BME280;51342;55.250;37.668;2024-03-06T07:25:11;100768.41;;;-1.34;54.52
45369;BME280;51342;55.250;37.668;2024-03-06T07:27:43;100768.63;;;-1.11;54.37
45369;BME280;51342;55.250;37.668;2024-03-06T07:30:14;100759.22;;;-0.91;53.66
45369;BME280;51342;55.250;37.668;2024-03-06T07:32:46;100755.72;;;-0.63;53.58
45369;BME280;51342;55.250;37.668;2024-03-06T07:35:18;100761.88;;;-0.46;52.98
45369;BME280;51342;55.250;37.668;2024-03-06T07:37:49;100772.25;;;-0.38;53.19
45369;BME280;51342;55.250;37.668;2024-03-06T07:40:21;100763.50;;;-0.40;53.01
45369;BME280;51342;55.250;37.668;2024-03-06T07:42:52;100763.72;;;-0.45;52.58
45369;BME280;51342;55.250;37.668;2024-03-06T07:45:23;100764.22;;;-0.41;52.66
45369;BME280;51342;55.250;37.668;2024-03-06T07:47:57;100757.84;;;-0.30;52.44
45369;BME280;51342;55.250;37.668;2024-03-06T07:50:29;100763.28;;;-0.20;51.73
45369;BME280;51342;55.250;37.668;2024-03-06T07:53:00;100769.81;;;-0.15;51.17
45369;BME280;51342;55.250;37.668;2024-03-06T07:55:33;100762.03;;;-0.16;50.78
45369;BME280;51342;55.250;37.668;2024-03-06T07:58:05;100767.84;;;-0.24;51.34
45369;BME280;51342;55.250;37.668;2024-03-06T08:00:36;100762.22;;;-0.22;51.70
45369;BME280;51342;55.250;37.668;2024-03-06T08:03:08;100762.53;;;-0.12;51.39
45369;BME280;51342;55.250;37.668;2024-03-06T08:05:39;100763.41;;;0.03;50.76
45369;BME280;51342;55.250;37.668;2024-03-06T08:08:11;100774.44;;;0.11;49.28
45369;BME280;51342;55.250;37.668;2024-03-06T08:10:42;100759.97;;;0.03;48.67
45369;BME280;51342;55.250;37.668;2024-03-06T08:13:16;100761.41;;;0.08;48.14
45369;BME280;51342;55.250;37.668;2024-03-06T08:15:50;100759.59;;;0.07;47.50
45369;BME280;51342;55.250;37.668;2024-03-06T08:18:22;100763.25;;;0.02;47.17
45369;BME280;51342;55.250;37.668;2024-03-06T08:20:54;100765.00;;;0.10;46.95
45369;BME280;51342;55.250;37.668;2024-03-06T08:23:25;100761.00;;;0.19;46.42
45369;BME280;51342;55.250;37.668;2024-03-06T08:25:56;100757.47;;;0.33;45.82
45369;BME280;51342;55.250;37.668;2024-03-06T08:28:28;100759.25;;;0.34;45.89
45369;BME280;51342;55.250;37.668;2024-03-06T08:31:00;100764.88;;;0.38;46.57
45369;BME280;51342;55.250;37.668;2024-03-06T08:33:31;100758.34;;;0.40;45.30
45369;BME280;51342;55.250;37.668;2024-03-06T08:36:03;100756.72;;;0.34;44.94
45369;BME280;51342;55.250;37.668;2024-03-06T08:38:35;100737.41;;;0.43;45.12
45369;BME280;51342;55.250;37.668;2024-03-06T08:41:06;100737.19;;;0.48;44.03
45369;BME280;51342;55.250;37.668;2024-03-06T08:43:38;100755.41;;;0.44;43.95
45369;BME280;51342;55.250;37.668;2024-03-06T08:46:09;100756.88;;;0.42;43.72
45369;BME280;51342;55.250;37.668;2024-03-06T08:48:41;100761.81;;;0.34;43.55
45369;BME280;51342;55.250;37.668;2024-03-06T08:51:12;100756.56;;;0.32;43.80
45369;BME280;51342;55.250;37.668;2024-03-06T08:53:45;100760.91;;;0.33;43.51
45369;BME280;51342;55.250;37.668;2024-03-06T08:56:16;100763.50;;;0.26;43.17
45369;BME280;51342;55.250;37.668;2024-03-06T08:58:49;100756.06;;;0.20;43.08
45369;BME280;51342;55.250;37.668;2024-03-06T09:01:21;100747.16;;;0.17;43.06
45369;BME280;51342;55.250;37.668;2024-03-06T09:03:53;100755.19;;;0.06;42.50
45369;BME280;51342;55.250;37.668;2024-03-06T09:06:24;100753.41;;;0.05;42.43
45369;BME280;51342;55.250;37.668;2024-03-06T09:08:56;100756.47;;;0.09;42.70
45369;BME280;51342;55.250;37.668;2024-03-06T09:11:27;100758.44;;;0.19;42.47
45369;BME280;51342;55.250;37.668;2024-03-06T09:13:59;100750.66;;;0.10;42.15
45369;BME280;51342;55.250;37.668;2024-03-06T09:16:30;100754.09;;;0.11;42.50
45369;BME280;51342;55.250;37.668;2024-03-06T09:19:02;100752.81;;;0.14;42.20
45369;BME280;51342;55.250;37.668;2024-03-06T09:21:33;100751.38;;;0.09;42.44
45369;BME280;51342;55.250;37.668;2024-03-06T09:24:05;100760.72;;;-0.06;41.88
45369;BME280;51342;55.250;37.668;2024-03-06T09:26:37;100750.22;;;-0.16;42.10
45369;BME280;51342;55.250;37.668;2024-03-06T09:29:08;100751.13;;;-0.15;42.09
45369;BME280;51342;55.250;37.668;2024-03-06T09:31:40;100753.09;;;-0.13;42.11
45369;BME280;51342;55.250;37.668;2024-03-06T09:34:12;100752.19;;;-0.13;42.42
45369;BME280;51342;55.250;37.668;2024-03-06T09:36:48;100757.84;;;-0.16;42.03
45369;BME280;51342;55.250;37.668;2024-03-06T09:39:20;100758.41;;;-0.25;41.81
45369;BME280;51342;55.250;37.668;2024-03-06T09:41:54;100754.59;;;-0.29;41.97
45369;BME280;51342;55.250;37.668;2024-03-06T09:44:27;100751.66;;;-0.18;41.96
45369;BME280;51342;55.250;37.668;2024-03-06T09:46:59;100747.66;;;-0.16;41.65
45369;BME280;51342;55.250;37.668;2024-03-06T09:49:34;100743.31;;;-0.17;41.75
45369;BME280;51342;55.250;37.668;2024-03-06T09:52:06;100741.09;;;-0.14;42.02
45369;BME280;51342;55.250;37.668;2024-03-06T09:54:38;100743.69;;;-0.21;42.01
45369;BME280;51342;55.250;37.668;2024-03-06T09:57:10;100743.50;;;-0.15;41.55
45369;BME280;51342;55.250;37.668;2024-03-06T09:59:44;100742.38;;;-0.17;41.37
45369;BME280;51342;55.250;37.668;2024-03-06T10:02:38;100737.69;;;-0.21;41.62
45369;BME280;51342;55.250;37.668;2024-03-06T10:05:22;100734.25;;;-0.29;41.78
45369;BME280;51342;55.250;37.668;2024-03-06T10:07:54;100741.13;;;-0.21;41.60
45369;BME280;51342;55.250;37.668;2024-03-06T10:10:25;100740.97;;;-0.30;41.85
45369;BME280;51342;55.250;37.668;2024-03-06T10:12:58;100730.25;;;-0.27;41.86
45369;BME280;51342;55.250;37.668;2024-03-06T10:15:31;100728.75;;;-0.18;41.78
45369;BME280;51342;55.250;37.668;2024-03-06T10:20:43;100730.03;;;-0.14;42.20
45369;BME280;51342;55.250;37.668;2024-03-06T10:23:15;100730.56;;;-0.10;42.08
45369;BME280;51342;55.250;37.668;2024-03-06T10:25:47;100729.47;;;-0.12;42.50
45369;BME280;51342;55.250;37.668;2024-03-06T10:28:23;100724.00;;;-0.08;42.02
45369;BME280;51342;55.250;37.668;2024-03-06T10:31:03;100711.13;;;-0.09;42.16
45369;BME280;51342;55.250;37.668;2024-03-06T10:33:35;100724.38;;;-0.12;41.83
45369;BME280;51342;55.250;37.668;2024-03-06T10:36:10;100720.59;;;-0.15;41.93
45369;BME280;51342;55.250;37.668;2024-03-06T10:38:43;100718.97;;;-0.15;42.08
45369;BME280;51342;55.250;37.668;2024-03-06T10:41:18;100725.81;;;-0.07;42.14
45369;BME280;51342;55.250;37.668;2024-03-06T10:43:56;100727.78;;;0.03;42.13
45369;BME280;51342;55.250;37.668;2024-03-06T10:46:28;100720.72;;;0.01;41.91
45369;BME280;51342;55.250;37.668;2024-03-06T10:49:01;100717.81;;;-0.03;42.12
45369;BME280;51342;55.250;37.668;2024-03-06T10:51:35;100720.94;;;-0.12;42.00
45369;BME280;51342;55.250;37.668;2024-03-06T10:54:08;100716.78;;;-0.19;42.17
45369;BME280;51342;55.250;37.668;2024-03-06T10:56:40;100712.97;;;-0.15;42.73
45369;BME280;51342;55.250;37.668;2024-03-06T10:59:14;100706.41;;;-0.13;42.81
45369;BME280;51342;55.250;37.668;2024-03-06T11:01:47;100705.88;;;-0.11;42.97
45369;BME280;51342;55.250;37.668;2024-03-06T11:04:20;100713.13;;;-0.14;42.33
45369;BME280;51342;55.250;37.668;2024-03-06T11:06:52;100704.44;;;-0.16;42.37
45369;BME280;51342;55.250;37.668;2024-03-06T11:09:25;100703.88;;;-0.13;42.57
45369;BME280;51342;55.250;37.668;2024-03-06T11:11:56;100704.56;;;-0.07;42.36
45369;BME280;51342;55.250;37.668;2024-03-06T11:14:31;100702.03;;;-0.07;42.32
45369;BME280;51342;55.250;37.668;2024-03-06T11:25:59;100700.44;;;-0.21;43.01
45369;BME280;51342;55.250;37.668;2024-03-06T11:28:32;100692.44;;;-0.17;42.67
45369;BME280;51342;55.250;37.668;2024-03-06T11:31:11;100695.72;;;-0.25;42.42
45369;BME280;51342;55.250;37.668;2024-03-06T11:33:53;100697.19;;;-0.34;42.45
45369;BME280;51342;55.250;37.668;2024-03-06T11:36:28;100694.13;;;-0.32;42.47
45369;BME280;51342;55.250;37.668;2024-03-06T11:39:06;100689.22;;;-0.30;42.24
45369;BME280;51342;55.250;37.668;2024-03-06T11:44:18;100682.84;;;-0.27;42.25
45369;BME280;51342;55.250;37.668;2024-03-06T11:47:06;100679.75;;;-0.24;41.99
45369;BME280;51342;55.250;37.668;2024-03-06T11:49:39;100682.13;;;-0.25;42.09
45369;BME280;51342;55.250;37.668;2024-03-06T11:52:11;100673.59;;;-0.26;41.88
45369;BME280;51342;55.250;37.668;2024-03-06T11:54:43;100669.94;;;-0.21;42.14
45369;BME280;51342;55.250;37.668;2024-03-06T11:57:14;100667.72;;;-0.11;42.39
45369;BME280;51342;55.250;37.668;2024-03-06T11:59:47;100654.97;;;-0.04;41.98
45369;BME280;51342;55.250;37.668;2024-03-06T12:02:18;100662.72;;;0.05;42.15
45369;BME280;51342;55.250;37.668;2024-03-06T12:04:51;100666.31;;;0.14;42.07
45369;BME280;51342;55.250;37.668;2024-03-06T12:07:23;100658.47;;;0.20;41.98
45369;BME280;51342;55.250;37.668;2024-03-06T12:09:57;100652.63;;;0.21;41.58
45369;BME280;51342;55.250;37.668;2024-03-06T12:12:29;100658.97;;;0.24;42.52
45369;BME280;51342;55.250;37.668;2024-03-06T12:15:03;100652.09;;;0.23;41.67
45369;BME280;51342;55.250;37.668;2024-03-06T12:17:45;100652.78;;;0.22;41.98
45369;BME280;51342;55.250;37.668;2024-03-06T12:20:21;100646.44;;;0.26;42.54
45369;BME280;51342;55.250;37.668;2024-03-06T12:22:53;100648.28;;;0.20;41.64
45369;BME280;51342;55.250;37.668;2024-03-06T12:25:27;100641.03;;;0.16;42.42
45369;BME280;51342;55.250;37.668;2024-03-06T12:28:07;100643.56;;;0.16;42.29
45369;BME280;51342;55.250;37.668;2024-03-06T12:30:42;100634.66;;;0.19;42.22
45369;BME280;51342;55.250;37.668;2024-03-06T12:33:18;100634.81;;;0.21;42.58
45369;BME280;51342;55.250;37.668;2024-03-06T12:36:01;100647.72;;;0.22;42.54
45369;BME280;51342;55.250;37.668;2024-03-06T12:38:33;100639.00;;;0.20;42.36
45369;BME280;51342;55.250;37.668;2024-03-06T12:41:05;100631.63;;;0.08;41.75
45369;BME280;51342;55.250;37.668;2024-03-06T12:43:37;100636.56;;;0.06;42.50
45369;BME280;51342;55.250;37.668;2024-03-06T12:46:08;100634.72;;;0.05;42.88
45369;BME280;51342;55.250;37.668;2024-03-06T12:48:40;100633.81;;;0.05;43.15
45369;BME280;51342;55.250;37.668;2024-03-06T12:51:11;100630.00;;;0.08;42.88
45369;BME280;51342;55.250;37.668;2024-03-06T12:53:43;100640.56;;;0.04;42.15
45369;BME280;51342;55.250;37.668;2024-03-06T12:56:15;100633.34;;;0.00;41.80
45369;BME280;51342;55.250;37.668;2024-03-06T12:58:46;100629.84;;;-0.01;41.92
45369;BME280;51342;55.250;37.668;2024-03-06T13:01:18;100623.31;;;0.02;42.42
45369;BME280;51342;55.250;37.668;2024-03-06T13:03:49;100623.31;;;0.02;42.17
45369;BME280;51342;55.250;37.668;2024-03-06T13:06:21;100623.31;;;0.02;42.29
45369;BME280;51342;55.250;37.668;2024-03-06T13:08:52;100618.97;;;0.01;42.39
45369;BME280;51342;55.250;37.668;2024-03-06T13:11:24;100613.69;;;-0.01;42.73
45369;BME280;51342;55.250;37.668;2024-03-06T13:13:55;100620.03;;;0.03;43.39
45369;BME280;51342;55.250;37.668;2024-03-06T13:16:27;100616.59;;;0.02;42.67
45369;BME280;51342;55.250;37.668;2024-03-06T13:18:58;100619.66;;;-0.01;42.80
45369;BME280;51342;55.250;37.668;2024-03-06T13:21:31;100630.22;;;0.03;42.72
45369;BME280;51342;55.250;37.668;2024-03-06T13:24:03;100626.03;;;0.03;41.91